Time;durP1;ratioP1;P1;durP2;ratioP2;P2;SDS_P1;SDS_P2;PMS_P1;PMS_P2;Temp;Humidity;BMP_temperature;BMP_pressure;BME280_temperature;BME280_humidity;BME280_pressure;Samples;Min_cycle;Max_cycle;Signal;HPM_P1;HPM_P2
2021/11/12 00:02:44;;;;;;;1.10;0.80;;;8.60;99.90;;;;;;4398104;32;20082;-67
2021/11/12 00:03:27;;;;;;;0.68;0.68;;;8.50;99.90;;;;;;4414346;32;20133;-66
2021/11/12 00:12:20;;;;;;;2.03;1.70;;;8.40;99.90;;;;;;4404249;32;20082;-66
2021/11/12 00:14:09;;;;;;;0.90;0.80;;;8.40;99.90;;;;;;4399513;32;20087;-66
2021/11/12 00:16:35;;;;;;;1.92;1.12;;;8.50;99.90;;;;;;4401552;32;20078;-66
2021/11/12 00:19:02;;;;;;;1.17;0.85;;;8.50;99.90;;;;;;4409888;32;20114;-66
2021/11/12 00:21:27;;;;;;;2.22;1.37;;;8.50;99.90;;;;;;4412729;32;20573;-66
2021/11/12 00:23:53;;;;;;;4.65;1.30;;;8.50;99.90;;;;;;4412367;32;20061;-66
2021/11/12 00:26:20;;;;;;;3.87;1.50;;;8.50;99.90;;;;;;4410546;32;20441;-66
2021/11/12 00:28:52;;;;;;;0.60;0.60;;;8.50;99.90;;;;;;4414667;32;20110;-66
2021/11/12 00:31:31;;;;;;;3.35;1.40;;;8.50;99.90;;;;;;4412900;32;21376;-66
2021/11/12 00:34:23;;;;;;;1.12;1.02;;;8.50;99.90;;;;;;4412858;32;20124;-66
2021/11/12 00:36:51;;;;;;;1.55;0.77;;;8.50;99.90;;;;;;4401343;32;20547;-66
2021/11/12 00:39:23;;;;;;;6.55;1.67;;;8.50;99.90;;;;;;4412709;32;20531;-66
2021/11/12 00:42:00;;;;;;;3.20;1.75;;;8.40;99.90;;;;;;4409781;32;20539;-66
2021/11/12 00:44:33;;;;;;;1.45;1.27;;;8.40;99.90;;;;;;4418578;32;20609;-66
2021/11/12 00:47:03;;;;;;;6.30;1.48;;;8.40;99.90;;;;;;4416473;32;20097;-66
2021/11/12 00:49:32;;;;;;;2.20;1.10;;;8.30;99.90;;;;;;4420040;32;20083;-66
2021/11/12 00:52:02;;;;;;;6.03;1.35;;;8.20;99.90;;;;;;4420566;32;20073;-66
2021/11/12 00:54:28;;;;;;;2.83;1.73;;;8.00;99.90;;;;;;4409170;32;20098;-66
2021/11/12 00:56:54;;;;;;;2.05;0.85;;;8.00;99.90;;;;;;4421354;32;20104;-66
2021/11/12 00:59:20;;;;;;;3.53;0.88;;;8.00;99.90;;;;;;4419005;32;20124;-66
2021/11/12 01:01:47;;;;;;;15.05;1.55;;;8.00;99.90;;;;;;4415105;32;20121;-66
2021/11/12 01:04:18;;;;;;;3.12;1.20;;;8.10;99.90;;;;;;4422750;32;20057;-66
2021/11/12 01:06:44;;;;;;;1.58;1.20;;;8.00;99.90;;;;;;4410524;32;20542;-66
2021/11/12 01:09:12;;;;;;;19.35;1.08;;;8.10;99.90;;;;;;4416765;32;20121;-67
2021/11/12 01:11:39;;;;;;;0.68;0.68;;;8.20;99.90;;;;;;4423248;32;20082;-66
2021/11/12 01:14:07;;;;;;;4.22;1.87;;;8.10;99.90;;;;;;4414215;32;20077;-66
2021/11/12 01:16:33;;;;;;;0.45;0.45;;;8.20;99.90;;;;;;4416911;32;20059;-66
2021/11/12 01:18:59;;;;;;;0.70;0.62;;;8.20;99.90;;;;;;4415926;32;20066;-66
2021/11/12 01:21:25;;;;;;;11.85;2.12;;;8.20;99.90;;;;;;4417540;32;20094;-66
2021/11/12 01:23:52;;;;;;;3.10;1.23;;;8.20;99.90;;;;;;4407382;32;20065;-66
2021/11/12 01:26:20;;;;;;;3.55;1.58;;;8.20;99.90;;;;;;4415717;32;20062;-66
2021/11/12 01:28:46;;;;;;;3.22;1.55;;;8.20;99.90;;;;;;4413797;32;20089;-66
2021/11/12 01:31:12;;;;;;;1.52;1.42;;;8.20;99.90;;;;;;4415482;32;20062;-66
2021/11/12 01:33:39;;;;;;;5.95;1.20;;;8.20;99.90;;;;;;4393838;32;20065;-67
2021/11/12 01:36:24;;;;;;;0.98;0.98;;;8.20;99.90;;;;;;4415251;32;20069;-66
2021/11/12 01:38:50;;;;;;;0.68;0.68;;;8.20;99.90;;;;;;4421047;32;20476;-66
2021/11/12 01:41:17;;;;;;;1.45;1.08;;;8.30;99.90;;;;;;4415783;32;20067;-66
2021/11/12 01:43:46;;;;;;;1.75;1.42;;;8.20;99.90;;;;;;4418564;32;20085;-66
2021/11/12 01:46:25;;;;;;;3.15;1.27;;;8.10;99.90;;;;;;4415717;32;20102;-66
2021/11/12 01:59:11;;;;;;;2.47;1.25;;;8.20;99.90;;;;;;4416191;32;20105;-66
2021/11/12 02:01:45;;;;;;;1.87;1.17;;;8.20;99.90;;;;;;4415891;32;20062;-66
2021/11/12 02:04:13;;;;;;;2.80;1.27;;;8.10;99.90;;;;;;4421394;32;20061;-66
2021/11/12 02:06:39;;;;;;;1.65;1.23;;;8.10;99.90;;;;;;4415163;32;20537;-66
2021/11/12 02:09:16;;;;;;;2.53;1.27;;;8.10;99.90;;;;;;4419723;32;20077;-66
2021/11/12 02:11:44;;;;;;;1.98;1.35;;;8.10;99.90;;;;;;4422061;32;20147;-66
2021/11/12 02:14:10;;;;;;;2.15;1.08;;;8.20;99.90;;;;;;4421997;32;20078;-67
2021/11/12 02:16:40;;;;;;;3.15;1.30;;;8.20;99.90;;;;;;4421427;32;20081;-67
2021/11/12 02:19:07;;;;;;;2.05;1.65;;;8.30;99.90;;;;;;4419098;32;20065;-67
2021/11/12 02:21:55;;;;;;;3.50;1.62;;;8.40;99.90;;;;;;4421660;32;20077;-66
2021/11/12 02:24:19;;;;;;;1.90;1.33;;;8.30;99.90;;;;;;4409735;32;20149;-66
2021/11/12 02:26:48;;;;;;;6.40;1.70;;;8.40;99.90;;;;;;4420510;32;20156;-67
2021/11/12 02:29:16;;;;;;;3.40;1.27;;;8.40;99.90;;;;;;4418400;32;20053;-67
2021/11/12 02:31:42;;;;;;;6.37;1.65;;;8.40;99.90;;;;;;4419481;32;20081;-66
2021/11/12 02:34:11;;;;;;;3.60;1.17;;;8.30;99.90;;;;;;4420251;32;20090;-66
2021/11/12 02:36:38;;;;;;;1.60;0.90;;;8.30;99.90;;;;;;4415464;32;20119;-66
2021/11/12 02:39:08;;;;;;;4.65;1.67;;;8.30;99.90;;;;;;4422020;32;20084;-66
2021/11/12 02:41:34;;;;;;;2.28;1.25;;;8.40;99.90;;;;;;4420798;32;20054;-66
2021/11/12 02:44:00;;;;;;;1.42;1.05;;;8.40;99.90;;;;;;4422140;32;20121;-66
2021/11/12 02:46:27;;;;;;;0.50;0.50;;;8.40;99.90;;;;;;4419897;32;20077;-67
2021/11/12 02:48:53;;;;;;;4.22;1.87;;;8.40;99.90;;;;;;4417924;32;20461;-67
2021/11/12 02:51:26;;;;;;;7.72;2.00;;;8.30;99.90;;;;;;4412048;32;20081;-66
2021/11/12 02:53:53;;;;;;;4.05;1.73;;;8.30;99.90;;;;;;4418873;32;20926;-66
2021/11/12 02:56:25;;;;;;;1.48;1.17;;;8.20;99.90;;;;;;4416620;32;20085;-66
2021/11/12 02:58:53;;;;;;;4.65;1.40;;;8.20;99.90;;;;;;4420224;32;20057;-66
2021/11/12 03:01:20;;;;;;;9.35;1.62;;;8.30;99.90;;;;;;4396360;32;20073;-66
2021/11/12 03:03:46;;;;;;;2.62;1.75;;;8.20;99.90;;;;;;4405234;32;20105;-66
2021/11/12 03:06:11;;;;;;;5.95;1.37;;;8.20;99.90;;;;;;4420428;32;20069;-66
2021/11/12 03:08:37;;;;;;;3.85;1.25;;;8.20;99.90;;;;;;4421048;32;20069;-66
2021/11/12 03:11:05;;;;;;;1.92;1.17;;;8.20;99.90;;;;;;4421085;32;20089;-66
2021/11/12 03:13:31;;;;;;;2.95;1.17;;;8.20;99.90;;;;;;4419285;32;20534;-66
2021/11/12 03:15:56;;;;;;;4.35;1.65;;;8.20;99.90;;;;;;4419856;32;20057;-66
2021/11/12 03:18:22;;;;;;;5.53;2.30;;;8.20;99.90;;;;;;4415823;32;20069;-66
2021/11/12 03:20:49;;;;;;;3.92;1.02;;;8.20;99.90;;;;;;4421778;32;20057;-67
2021/11/12 03:23:19;;;;;;;33.65;3.45;;;8.30;99.90;;;;;;4418151;32;20240;-66
2021/11/12 03:26:56;;;;;;;2.97;1.40;;;8.30;99.90;;;;;;4417742;32;20503;-66
2021/11/12 03:31:32;;;;;;;0.62;0.62;;;8.20;99.90;;;;;;4417039;32;20093;-66
2021/11/12 03:59:49;;;;;;;3.20;1.55;;;8.10;99.90;;;;;;4403975;32;20109;-66
2021/11/12 04:00:32;;;;;;;3.22;1.70;;;8.10;99.90;;;;;;4408249;32;20155;-66
2021/11/12 04:04:46;;;;;;;20.92;1.27;;;8.20;99.90;;;;;;4420643;32;20053;-66
2021/11/12 04:06:33;;;;;;;4.57;2.28;;;8.20;99.90;;;;;;4403259;32;20105;-66
2021/11/12 04:17:31;;;;;;;3.58;2.28;;;8.10;99.90;;;;;;4408727;32;20069;-66
2021/11/12 04:21:07;;;;;;;4.72;2.22;;;8.10;99.90;;;;;;4414647;32;20113;-66
2021/11/12 04:30:41;;;;;;;1.23;1.10;;;8.10;99.90;;;;;;4386593;32;20106;-66
2021/11/12 04:39:49;;;;;;;13.68;3.03;;;8.10;99.90;;;;;;4404519;32;20061;-66
2021/11/12 04:42:06;;;;;;;11.63;2.10;;;8.20;99.90;;;;;;4407218;32;20491;-67
2021/11/12 05:09:34;;;;;;;6.45;2.05;;;8.20;99.90;;;;;;4404810;32;20184;-67
2021/11/12 05:11:41;;;;;;;11.80;2.17;;;8.00;99.90;;;;;;4413298;32;20077;-67
2021/11/12 05:26:26;;;;;;;7.85;1.83;;;8.00;99.90;;;;;;4417092;32;20563;-67
2021/11/12 05:34:25;;;;;;;19.12;2.70;;;8.00;99.90;;;;;;4401856;32;20241;-67
2021/11/12 05:44:18;;;;;;;0.88;0.75;;;8.10;99.90;;;;;;4404895;32;20579;-67
2021/11/12 05:46:57;;;;;;;6.60;1.43;;;8.10;99.90;;;;;;4414261;32;20089;-67
2021/11/12 05:50:36;;;;;;;12.05;2.40;;;8.00;99.90;;;;;;4411814;32;20086;-67
2021/11/12 05:55:10;;;;;;;22.80;4.18;;;7.90;99.90;;;;;;4400640;32;20125;-67
2021/11/12 05:57:38;;;;;;;2.60;1.75;;;7.90;99.90;;;;;;4415711;32;20538;-67
2021/11/12 06:00:10;;;;;;;5.87;1.45;;;7.90;99.90;;;;;;4411191;32;20501;-67
2021/11/12 06:02:37;;;;;;;5.93;1.45;;;8.00;99.90;;;;;;4406866;32;20181;-66
2021/11/12 06:05:03;;;;;;;3.90;1.23;;;8.00;99.90;;;;;;4407012;32;20077;-67
2021/11/12 06:07:29;;;;;;;15.52;1.75;;;7.90;99.90;;;;;;4398568;32;20098;-67
2021/11/12 06:09:55;;;;;;;2.50;1.73;;;7.80;99.90;;;;;;4413172;32;20066;-67
2021/11/12 06:12:22;;;;;;;2.65;1.45;;;7.70;99.90;;;;;;4416229;32;20080;-67
2021/11/12 06:14:47;;;;;;;6.28;2.17;;;7.70;99.90;;;;;;4411635;32;20081;-67
2021/11/12 06:17:13;;;;;;;5.07;1.05;;;7.70;99.90;;;;;;4397052;32;21742;-67
2021/11/12 06:19:39;;;;;;;10.32;2.12;;;7.70;99.90;;;;;;4408051;32;20074;-67
2021/11/12 06:22:05;;;;;;;1.87;1.50;;;7.80;99.90;;;;;;4406202;32;20939;-67
2021/11/12 06:24:31;;;;;;;8.82;1.50;;;7.80;99.90;;;;;;4408305;32;20078;-67
2021/11/12 06:26:56;;;;;;;2.03;1.20;;;7.90;99.90;;;;;;4395674;32;20077;-67
2021/11/12 06:29:22;;;;;;;4.43;1.87;;;7.90;99.90;;;;;;4387766;32;20400;-67
2021/11/12 06:31:48;;;;;;;3.85;1.98;;;7.80;99.90;;;;;;4381279;32;20222;-67
2021/11/12 06:34:15;;;;;;;6.65;1.50;;;7.80;99.90;;;;;;4396476;32;20093;-67
2021/11/12 06:36:42;;;;;;;8.77;2.33;;;7.80;99.90;;;;;;4410610;32;20113;-67
2021/11/12 06:39:09;;;;;;;1.73;1.20;;;7.80;99.90;;;;;;4385988;32;20109;-67
2021/11/12 06:49:27;;;;;;;4.90;1.92;;;7.90;99.90;;;;;;4403159;32;20086;-67
2021/11/12 06:49:49;;;;;;;1.02;1.02;;;7.90;99.90;;;;;;4378428;32;20090;-67
2021/11/12 06:52:16;;;;;;;1.30;1.20;;;7.90;99.90;;;;;;4390988;32;20107;-67
2021/11/12 06:54:42;;;;;;;6.25;1.23;;;7.80;99.90;;;;;;4376285;32;21498;-66
2021/11/12 06:57:08;;;;;;;6.05;2.10;;;7.80;99.90;;;;;;4395959;32;21456;-67
2021/11/12 06:59:33;;;;;;;2.22;1.73;;;7.80;99.90;;;;;;4387196;32;20586;-67
2021/11/12 07:01:59;;;;;;;2.05;1.12;;;7.80;99.90;;;;;;4390388;32;20706;-66
2021/11/12 07:04:24;;;;;;;7.47;2.83;;;7.70;99.90;;;;;;4390829;32;20074;-66
2021/11/12 07:06:50;;;;;;;2.53;1.50;;;7.70;99.90;;;;;;4382480;32;20568;-67
2021/11/12 07:09:16;;;;;;;11.75;3.28;;;7.60;99.90;;;;;;4391569;32;20161;-66
2021/11/12 07:11:42;;;;;;;28.45;1.60;;;7.60;99.90;;;;;;4392226;32;20411;-67
2021/11/12 07:14:07;;;;;;;3.45;1.98;;;7.60;99.90;;;;;;4384232;32;20079;-67
2021/11/12 07:16:33;;;;;;;4.60;2.95;;;7.60;99.90;;;;;;4388563;32;20085;-65
2021/11/12 07:19:00;;;;;;;10.07;2.75;;;7.50;99.90;;;;;;4384632;32;20809;-66
2021/11/12 07:21:27;;;;;;;4.28;2.33;;;7.50;99.90;;;;;;4390059;32;20081;-66
2021/11/12 07:23:54;;;;;;;1.58;1.15;;;7.60;99.90;;;;;;4376864;32;20109;-65
2021/11/12 07:26:20;;;;;;;6.97;2.22;;;7.60;99.90;;;;;;4395520;32;20112;-66
2021/11/12 07:28:47;;;;;;;5.50;2.45;;;7.50;99.90;;;;;;4392373;32;20724;-66
2021/11/12 07:31:13;;;;;;;4.15;1.17;;;7.50;99.90;;;;;;4393663;32;22454;-66
2021/11/12 07:33:39;;;;;;;7.97;2.92;;;7.50;99.90;;;;;;4391724;32;20098;-65
2021/11/12 07:36:11;;;;;;;4.28;1.77;;;7.50;99.90;;;;;;4398346;32;20109;-67
2021/11/12 07:38:55;;;;;;;6.85;1.92;;;7.60;99.90;;;;;;4384195;32;20149;-66
2021/11/12 07:45:19;;;;;;;3.12;1.27;;;7.50;99.90;;;;;;4370868;32;20604;-66
2021/11/12 07:47:02;;;;;;;2.10;1.52;;;7.30;99.90;;;;;;4389633;32;20078;-66
2021/11/12 07:49:28;;;;;;;10.20;1.77;;;7.30;99.90;;;;;;4387116;32;20570;-65
2021/11/12 07:51:56;;;;;;;4.35;2.55;;;7.30;99.90;;;;;;4386194;32;20156;-66
2021/11/12 07:54:22;;;;;;;4.35;1.95;;;7.30;99.90;;;;;;4392119;32;21402;-67
2021/11/12 07:56:49;;;;;;;4.37;2.47;;;7.40;99.90;;;;;;4389906;32;20369;-66
2021/11/12 07:59:14;;;;;;;3.22;2.17;;;7.40;99.90;;;;;;4393797;32;20094;-67
2021/11/12 08:01:40;;;;;;;13.73;4.03;;;7.50;99.90;;;;;;4387709;32;20085;-66
2021/11/12 08:04:07;;;;;;;4.35;2.55;;;7.50;99.90;;;;;;4396931;32;20085;-67
2021/11/12 08:06:33;;;;;;;5.10;2.17;;;7.50;99.90;;;;;;4390334;32;20623;-66
2021/11/12 08:09:02;;;;;;;11.38;2.97;;;7.50;99.90;;;;;;4384517;32;20054;-66
2021/11/12 08:11:35;;;;;;;11.18;2.12;;;7.50;99.90;;;;;;4396630;32;20152;-66
2021/11/12 08:16:59;;;;;;;6.22;2.05;;;7.40;99.90;;;;;;4386144;32;20066;-66
2021/11/12 08:19:28;;;;;;;22.77;4.37;;;7.40;99.90;;;;;;4383756;32;20153;-66
2021/11/12 08:22:03;;;;;;;5.85;2.10;;;7.40;99.90;;;;;;4395921;32;20086;-68
2021/11/12 08:25:40;;;;;;;3.37;2.12;;;7.40;99.90;;;;;;4396185;32;20058;-66
2021/11/12 08:29:51;;;;;;;4.55;2.10;;;7.40;99.90;;;;;;4394925;32;20078;-66
2021/11/12 08:32:40;;;;;;;2.70;2.08;;;7.40;99.90;;;;;;4388122;32;20118;-66
2021/11/12 08:35:10;;;;;;;4.22;3.03;;;7.50;99.90;;;;;;4375308;32;20093;-67
2021/11/12 08:37:45;;;;;;;7.95;2.87;;;7.50;99.90;;;;;;4393585;32;20091;-67
2021/11/12 08:41:26;;;;;;;4.20;1.73;;;7.50;99.90;;;;;;4383045;32;20202;-67
2021/11/12 08:43:04;;;;;;;5.43;2.05;;;7.70;99.90;;;;;;4384984;32;20401;-67
2021/11/12 08:45:37;;;;;;;1.83;1.50;;;7.60;99.90;;;;;;4400790;32;20516;-67
2021/11/12 08:48:07;;;;;;;20.17;3.08;;;7.70;99.90;;;;;;4392839;32;20094;-67
2021/11/12 08:50:35;;;;;;;4.27;2.17;;;7.70;99.90;;;;;;4388711;32;20150;-67
2021/11/12 08:53:06;;;;;;;4.18;2.42;;;7.70;99.90;;;;;;4389871;32;20931;-67
2021/11/12 08:55:34;;;;;;;4.32;1.75;;;7.80;99.90;;;;;;4383409;32;20107;-67
2021/11/12 08:58:00;;;;;;;2.55;1.73;;;7.80;99.90;;;;;;4387238;32;20581;-67
2021/11/12 09:00:26;;;;;;;2.55;1.30;;;7.80;99.90;;;;;;4387245;32;20326;-67
2021/11/12 09:02:53;;;;;;;7.60;2.33;;;7.80;99.90;;;;;;4373315;32;20090;-67
2021/11/12 09:05:20;;;;;;;5.40;1.40;;;8.00;99.90;;;;;;4389644;32;20128;-67
2021/11/12 09:07:47;;;;;;;3.53;1.12;;;7.90;99.90;;;;;;4374721;32;20106;-67
2021/11/12 09:10:14;;;;;;;3.58;1.48;;;8.00;99.90;;;;;;4392236;32;20413;-67
2021/11/12 09:12:42;;;;;;;7.45;1.45;;;8.10;99.90;;;;;;4370478;32;20146;-68
2021/11/12 09:15:20;;;;;;;4.97;2.00;;;8.10;99.90;;;;;;4384718;32;20107;-67
2021/11/12 09:17:46;;;;;;;2.00;1.52;;;8.10;99.90;;;;;;4384483;32;20614;-67
2021/11/12 09:20:13;;;;;;;5.00;1.98;;;8.00;99.90;;;;;;4386885;32;20109;-67
2021/11/12 09:22:40;;;;;;;3.70;2.20;;;8.00;99.90;;;;;;4360319;32;21407;-67
2021/11/12 09:25:08;;;;;;;4.47;1.62;;;8.00;99.90;;;;;;4383706;32;20176;-67
2021/11/12 09:27:34;;;;;;;4.87;2.80;;;8.10;99.90;;;;;;4354983;32;21913;-67
2021/11/12 09:30:01;;;;;;;3.72;1.77;;;8.10;99.90;;;;;;4381286;32;20780;-67
2021/11/12 09:32:27;;;;;;;4.22;1.17;;;8.20;99.90;;;;;;4381656;32;20162;-66
2021/11/12 09:34:52;;;;;;;2.45;1.30;;;8.20;99.90;;;;;;4378726;32;20090;-66
2021/11/12 09:37:21;;;;;;;2.92;1.87;;;8.30;99.90;;;;;;4384178;32;20102;-66
2021/11/12 09:39:54;;;;;;;2.80;1.95;;;8.30;99.90;;;;;;4387044;32;20089;-67
2021/11/12 09:42:22;;;;;;;4.32;2.08;;;8.30;99.90;;;;;;4383510;32;20137;-67
2021/11/12 09:44:48;;;;;;;2.17;1.45;;;8.30;99.90;;;;;;4386410;32;20213;-67
2021/11/12 09:47:16;;;;;;;3.30;1.77;;;8.30;99.90;;;;;;4386730;32;20093;-67
2021/11/12 09:49:42;;;;;;;6.12;2.25;;;8.40;99.90;;;;;;4384650;32;20106;-67
2021/11/12 09:52:10;;;;;;;1.55;1.42;;;8.50;99.90;;;;;;4382897;32;20074;-67
2021/11/12 09:54:37;;;;;;;10.93;1.52;;;8.50;99.90;;;;;;4377838;32;20089;-67
2021/11/12 09:57:03;;;;;;;1.67;1.05;;;8.50;99.90;;;;;;4380758;32;20109;-67
2021/11/12 09:59:33;;;;;;;4.15;1.35;;;8.60;99.90;;;;;;4383950;32;20094;-67
2021/11/12 10:02:00;;;;;;;7.07;1.70;;;8.60;99.90;;;;;;4385151;32;20819;-67
2021/11/12 10:04:26;;;;;;;5.97;1.80;;;8.60;99.90;;;;;;4389708;32;20183;-67
2021/11/12 10:06:51;;;;;;;3.85;1.10;;;8.60;99.90;;;;;;4388949;32;20681;-67
2021/11/12 10:09:20;;;;;;;2.03;1.48;;;8.60;99.90;;;;;;4387328;32;20089;-67
2021/11/12 10:12:01;;;;;;;3.12;1.67;;;8.60;99.90;;;;;;4384061;32;20184;-67
2021/11/12 10:14:38;;;;;;;0.93;0.93;;;8.70;99.90;;;;;;4388784;32;20078;-66
2021/11/12 10:17:07;;;;;;;1.27;1.17;;;8.70;99.90;;;;;;4377112;32;20151;-66
2021/11/12 10:19:41;;;;;;;1.00;0.88;;;8.70;99.90;;;;;;4391063;32;21038;-67
2021/11/12 10:22:06;;;;;;;1.85;1.00;;;8.70;99.90;;;;;;4385577;32;20081;-66
2021/11/12 10:24:40;;;;;;;9.93;3.60;;;8.60;99.90;;;;;;4385050;32;20180;-66
2021/11/12 10:27:10;;;;;;;3.70;1.33;;;8.60;99.90;;;;;;4390107;32;21262;-66
2021/11/12 10:29:44;;;;;;;0.82;0.80;;;8.50;99.90;;;;;;4388570;32;20178;-66
2021/11/12 10:32:12;;;;;;;1.73;0.68;;;8.60;99.90;;;;;;4393516;32;20097;-66
2021/11/12 10:34:42;;;;;;;4.30;1.62;;;8.60;99.90;;;;;;4394702;32;20062;-66
2021/11/12 10:37:17;;;;;;;1.02;0.98;;;8.60;99.90;;;;;;4395555;32;20252;-66
2021/11/12 10:39:46;;;;;;;3.40;1.40;;;8.60;99.90;;;;;;4397687;32;20232;-67
2021/11/12 10:42:14;;;;;;;4.85;1.83;;;8.60;99.90;;;;;;4391125;32;20589;-66
2021/11/12 10:44:44;;;;;;;1.65;0.88;;;8.60;99.90;;;;;;4399468;32;20073;-66
2021/11/12 10:47:11;;;;;;;6.07;1.23;;;8.60;99.90;;;;;;4400361;32;20094;-66
2021/11/12 10:49:40;;;;;;;2.20;0.88;;;8.70;99.90;;;;;;4402910;32;20546;-66
2021/11/12 10:52:13;;;;;;;4.53;1.02;;;8.60;99.90;;;;;;4397839;32;20078;-66
2021/11/12 10:54:47;;;;;;;2.25;1.30;;;8.50;99.90;;;;;;4394338;32;20073;-66
2021/11/12 10:57:14;;;;;;;3.03;1.48;;;8.60;99.90;;;;;;4400283;32;20198;-66
2021/11/12 10:59:59;;;;;;;3.58;1.35;;;8.60;99.90;;;;;;4382092;32;20426;-67
2021/11/12 11:02:28;;;;;;;4.12;1.02;;;8.60;99.90;;;;;;4386017;32;20636;-66
2021/11/12 11:04:57;;;;;;;3.62;1.20;;;8.70;99.90;;;;;;4396701;32;20094;-66
2021/11/12 11:07:23;;;;;;;2.25;1.10;;;8.80;99.90;;;;;;4395112;32;20186;-66
2021/11/12 11:09:52;;;;;;;3.90;1.02;;;9.00;99.90;;;;;;4402865;32;20097;-66
2021/11/12 11:12:39;;;;;;;3.12;1.83;;;9.00;99.90;;;;;;4397056;32;20191;-66
2021/11/12 11:15:19;;;;;;;2.08;0.77;;;9.10;99.90;;;;;;4379238;32;20124;-67
2021/11/12 11:17:50;;;;;;;4.65;1.27;;;9.20;99.90;;;;;;4392944;32;20232;-68
2021/11/12 11:20:21;;;;;;;1.73;1.17;;;9.20;99.90;;;;;;4389723;32;20601;-67
2021/11/12 11:22:55;;;;;;;3.78;1.42;;;9.20;99.90;;;;;;4394099;32;20576;-66
2021/11/12 11:25:23;;;;;;;7.50;1.05;;;9.30;99.90;;;;;;4391320;32;20119;-66
2021/11/12 11:27:50;;;;;;;1.27;1.17;;;9.30;99.90;;;;;;4401286;32;20558;-67
2021/11/12 11:30:16;;;;;;;3.00;0.90;;;9.40;99.90;;;;;;4404403;32;20508;-67
2021/11/12 11:32:45;;;;;;;2.17;1.23;;;9.50;99.90;;;;;;4400782;32;20148;-67
2021/11/12 11:35:12;;;;;;;0.93;0.77;;;9.30;99.90;;;;;;4396131;32;20146;-67
2021/11/12 11:37:38;;;;;;;1.25;0.62;;;9.20;99.90;;;;;;4395176;32;20089;-68
2021/11/12 11:40:06;;;;;;;1.02;0.90;;;9.30;99.90;;;;;;4389791;32;20436;-67
2021/11/12 11:42:32;;;;;;;1.23;0.93;;;9.40;99.90;;;;;;4391353;32;20097;-67
2021/11/12 11:44:59;;;;;;;6.00;1.20;;;9.50;99.90;;;;;;4398606;32;20258;-68
2021/11/12 11:47:26;;;;;;;1.37;1.17;;;9.50;99.90;;;;;;4401911;32;20102;-67
2021/11/12 11:49:52;;;;;;;11.80;1.58;;;9.60;99.90;;;;;;4398685;32;20109;-67
2021/11/12 11:52:25;;;;;;;1.85;1.02;;;9.70;99.90;;;;;;4391341;32;20090;-67
2021/11/12 11:54:51;;;;;;;1.77;1.05;;;9.50;99.90;;;;;;4391171;32;20066;-67
2021/11/12 11:57:20;;;;;;;2.53;1.37;;;9.40;99.90;;;;;;4396978;32;20299;-67
2021/11/12 11:59:47;;;;;;;9.43;0.73;;;9.40;99.90;;;;;;4392099;32;20057;-67
2021/11/12 12:02:18;;;;;;;0.60;0.60;;;9.30;99.90;;;;;;4392711;32;20570;-67
2021/11/12 12:04:50;;;;;;;1.23;0.98;;;9.30;99.90;;;;;;4395276;32;20074;-68
2021/11/12 12:07:20;;;;;;;0.77;0.52;;;9.40;99.90;;;;;;4397918;32;20074;-67
2021/11/12 12:10:14;;;;;;;2.33;0.85;;;9.50;99.90;;;;;;4395016;32;20162;-68
2021/11/12 12:12:45;;;;;;;0.80;0.80;;;9.60;99.90;;;;;;4356965;32;20283;-73
2021/11/12 12:15:15;;;;;;;2.05;0.98;;;9.50;99.90;;;;;;4353337;32;20095;-74
2021/11/12 12:17:43;;;;;;;2.05;1.10;;;9.50;99.90;;;;;;4356596;32;20354;-74
2021/11/12 12:20:34;;;;;;;0.75;0.75;;;9.50;99.90;;;;;;4354207;32;20498;-74
2021/11/12 12:37:06;;;;;;;1.83;1.50;;;9.00;99.90;;;;;;4347949;32;20417;-65
2021/11/12 13:18:34;;;;;;;1.25;0.95;;;9.00;99.90;;;;;;4333946;32;20066;-65
2021/11/12 13:19:25;;;;;;;0.80;0.80;;;9.10;99.90;;;;;;4343337;32;20082;-66
2021/11/12 13:19:59;;;;;;;2.17;1.10;;;9.10;99.90;;;;;;4337112;32;20094;-66
2021/11/12 13:25:51;;;;;;;1.30;1.17;;;8.90;99.90;;;;;;4345739;32;20074;-66
2021/11/12 13:28:18;;;;;;;;;;;9.00;99.90;;;;;;4350655;32;20486;-65
2021/11/12 13:30:48;;;;;;;0.40;0.40;;;9.10;99.90;;;;;;4351673;32;20289;-66
2021/11/12 13:33:43;;;;;;;4.22;1.17;;;9.00;99.90;;;;;;4350925;32;20071;-66
2021/11/12 13:36:20;;;;;;;0.52;0.52;;;9.00;99.90;;;;;;4339218;32;20139;-65
2021/11/12 13:38:51;;;;;;;6.93;0.60;;;9.10;99.90;;;;;;4355744;32;20174;-66
2021/11/12 13:41:19;;;;;;;1.48;1.00;;;9.20;99.90;;;;;;4351740;32;20138;-65
2021/11/12 13:43:47;;;;;;;1.55;1.05;;;9.10;99.90;;;;;;4357369;32;20145;-66
2021/11/12 13:46:13;;;;;;;0.55;0.55;;;9.20;99.90;;;;;;4360691;32;20063;-66
2021/11/12 13:48:44;;;;;;;2.75;0.50;;;9.20;99.90;;;;;;4358080;32;20579;-65
2021/11/12 13:51:11;;;;;;;0.68;0.55;;;9.20;99.90;;;;;;4361354;32;20477;-66
2021/11/12 13:53:37;;;;;;;0.77;0.77;;;9.30;99.90;;;;;;4364010;32;20587;-66
2021/11/12 13:56:08;;;;;;;2.50;1.12;;;9.20;99.90;;;;;;4363019;32;20175;-66
2021/11/12 13:58:33;;;;;;;;;;;9.20;99.90;;;;;;4356945;32;20154;-66
2021/11/12 14:00:59;;;;;;;0.60;0.60;;;9.20;99.90;;;;;;4356768;32;20452;-66
2021/11/12 14:03:34;;;;;;;0.30;0.30;;;9.20;99.90;;;;;;4356640;32;20439;-66
2021/11/12 14:06:08;;;;;;;10.63;1.45;;;9.10;99.90;;;;;;4360490;32;20083;-67
2021/11/12 14:08:40;;;;;;;0.50;0.50;;;9.20;99.90;;;;;;4357422;32;20428;-66
2021/11/12 14:11:27;;;;;;;0.70;0.70;;;9.10;99.90;;;;;;4358463;32;20508;-66
2021/11/12 14:13:56;;;;;;;0.45;0.40;;;9.10;99.90;;;;;;4344356;32;20123;-66
2021/11/12 14:16:29;;;;;;;1.35;0.75;;;9.10;99.90;;;;;;4354388;32;20418;-66
2021/11/12 14:21:52;;;;;;;1.45;0.93;;;9.10;99.90;;;;;;4353253;32;20133;-66
2021/11/12 14:24:33;;;;;;;0.93;0.93;;;9.20;99.90;;;;;;4355438;32;20071;-66
2021/11/12 14:32:30;;;;;;;0.80;0.77;;;9.20;99.90;;;;;;4358920;32;20095;-66
2021/11/12 14:36:14;;;;;;;0.60;0.60;;;9.00;99.90;;;;;;4354972;32;20085;-66
2021/11/12 14:40:30;;;;;;;3.00;1.05;;;9.00;99.90;;;;;;4355197;32;20087;-66
2021/11/12 14:45:32;;;;;;;0.47;0.47;;;9.10;99.90;;;;;;4354695;32;20638;-66
2021/11/12 14:48:02;;;;;;;1.95;0.68;;;9.10;99.90;;;;;;4356410;32;21386;-66
2021/11/12 14:51:07;;;;;;;0.60;0.60;;;9.10;99.90;;;;;;4358024;32;20102;-66
2021/11/12 14:53:22;;;;;;;0.93;0.88;;;9.00;99.90;;;;;;4345197;32;20162;-66
2021/11/12 14:55:58;;;;;;;0.62;0.62;;;9.00;99.90;;;;;;4356766;32;20103;-66
2021/11/12 14:58:25;;;;;;;5.78;0.60;;;9.00;99.90;;;;;;4358211;32;20110;-66
2021/11/12 15:00:50;;;;;;;1.85;0.75;;;9.00;99.90;;;;;;4359633;32;20102;-66
2021/11/12 15:03:16;;;;;;;0.98;0.60;;;9.00;99.90;;;;;;4354079;32;20111;-66
2021/11/12 15:05:42;;;;;;;1.17;0.75;;;9.10;99.90;;;;;;4351391;32;20120;-66
2021/11/12 15:08:25;;;;;;;0.60;0.60;;;9.00;99.90;;;;;;4353080;32;20067;-66
2021/11/12 15:10:52;;;;;;;0.68;0.68;;;9.10;99.90;;;;;;4356452;32;20509;-66
2021/11/12 15:13:18;;;;;;;1.02;0.93;;;9.10;99.90;;;;;;4356541;32;20141;-66
2021/11/12 15:15:44;;;;;;;1.62;1.52;;;9.00;99.90;;;;;;4356817;32;20090;-66
2021/11/12 15:18:11;;;;;;;0.93;0.75;;;9.10;99.90;;;;;;4361739;32;20278;-66
2021/11/12 15:20:38;;;;;;;1.52;0.82;;;9.10;99.90;;;;;;4360892;32;20063;-66
2021/11/12 15:23:30;;;;;;;1.30;1.20;;;9.00;99.90;;;;;;4362018;32;20437;-66
2021/11/12 15:29:05;;;;;;;0.50;0.50;;;8.90;99.90;;;;;;4358187;32;20086;-66
2021/11/12 15:31:17;;;;;;;0.73;0.73;;;8.90;99.90;;;;;;4342921;32;20075;-66
2021/11/12 15:33:45;;;;;;;1.15;0.93;;;8.80;99.90;;;;;;4334085;32;20099;-66
2021/11/12 15:36:14;;;;;;;0.57;0.57;;;8.80;99.90;;;;;;4356413;32;20623;-66
2021/11/12 15:39:02;;;;;;;2.12;0.85;;;8.80;99.90;;;;;;4350067;32;20107;-66
2021/11/12 15:44:00;;;;;;;8.38;2.05;;;8.80;99.90;;;;;;4350904;32;20513;-66
2021/11/12 15:46:28;;;;;;;2.47;0.85;;;8.70;99.90;;;;;;4354411;32;20171;-67
2021/11/12 15:48:55;;;;;;;1.40;0.88;;;8.70;99.90;;;;;;4351267;32;22042;-66
2021/11/12 15:51:30;;;;;;;0.77;0.77;;;8.60;99.90;;;;;;4353569;32;20525;-66
2021/11/12 15:55:10;;;;;;;0.50;0.50;;;8.60;99.90;;;;;;4351819;32;20090;-66
2021/11/12 15:57:01;;;;;;;2.40;1.17;;;8.60;99.90;;;;;;4338233;32;20147;-66
2021/11/12 15:59:46;;;;;;;1.65;1.08;;;8.60;99.90;;;;;;4336891;32;20094;-66
2021/11/12 16:07:45;;;;;;;1.00;1.00;;;8.50;99.90;;;;;;4342391;32;20560;-66
2021/11/12 16:10:22;;;;;;;0.70;0.62;;;8.40;99.90;;;;;;4343569;32;20145;-66
2021/11/12 16:12:51;;;;;;;1.00;0.98;;;8.40;99.90;;;;;;4341329;32;20449;-66
2021/11/12 16:15:31;;;;;;;1.12;1.02;;;8.30;99.90;;;;;;4359137;32;20074;-66
2021/11/12 16:18:05;;;;;;;2.72;0.90;;;8.40;99.90;;;;;;4357655;32;20602;-66
2021/11/12 16:20:49;;;;;;;1.12;1.05;;;8.30;99.90;;;;;;4363755;32;20155;-66
2021/11/12 16:23:37;;;;;;;0.75;0.75;;;8.30;99.90;;;;;;4361831;32;20098;-65
2021/11/12 16:26:03;;;;;;;2.67;0.77;;;8.30;99.90;;;;;;4354397;32;20544;-66
2021/11/12 16:28:33;;;;;;;2.20;1.05;;;8.30;99.90;;;;;;4366248;32;20114;-66
2021/11/12 16:31:01;;;;;;;1.20;0.88;;;8.40;99.90;;;;;;4364292;32;20095;-66
2021/11/12 16:33:28;;;;;;;2.75;1.45;;;8.40;99.90;;;;;;4366593;32;20384;-65
2021/11/12 16:35:58;;;;;;;0.57;0.57;;;8.40;99.90;;;;;;4362750;32;20070;-66
2021/11/12 16:38:28;;;;;;;1.73;1.00;;;8.40;99.90;;;;;;4367514;32;20091;-66
2021/11/12 16:41:01;;;;;;;1.17;0.80;;;8.40;99.90;;;;;;4363495;32;20090;-66
2021/11/12 16:43:34;;;;;;;1.12;1.05;;;8.30;99.90;;;;;;4363455;32;20067;-66